Time;durP1;ratioP1;P1;durP2;ratioP2;P2;SDS_P1;SDS_P2;PMS_P1;PMS_P2;Temp;Humidity;BMP_temperature;BMP_pressure;BME280_temperature;BME280_humidity;BME280_pressure;Samples;Min_cycle;Max_cycle;Signal;HPM_P1;HPM_P2
2021/05/27 05:33:55;;;;;;;;;5.00;5.00;;;;;20.15;47.18;101811.81;6171270;22;1321584;-68
2021/05/27 05:36:24;;;;;;;;;7.00;7.00;;;;;20.18;47.02;101804.47;6254176;22;45214;-66
2021/05/27 05:38:50;;;;;;;;;5.50;5.00;;;;;20.22;46.87;101807.84;6228340;22;45252;-66
2021/05/27 05:41:15;;;;;;;;;10.50;9.75;;;;;20.23;47.13;101813.06;6253911;22;45262;-66
2021/05/27 05:43:41;;;;;;;;;6.00;4.50;;;;;20.23;46.56;101813.06;6253632;22;45303;-65
2021/05/27 05:46:06;;;;;;;;;6.00;5.00;;;;;20.24;46.93;101812.13;6252397;22;58126;-65
2021/05/27 05:48:32;;;;;;;;;6.00;6.00;;;;;20.25;47.10;101820.97;6254514;22;46565;-65
2021/05/27 05:50:59;;;;;;;;;4.25;4.25;;;;;20.27;46.99;101821.78;6255058;22;45170;-65
2021/05/27 05:53:24;;;;;;;;;5.00;5.00;;;;;20.27;46.59;101820.91;6254832;22;45983;-65
2021/05/27 05:55:51;;;;;;;;;3.25;3.25;;;;;20.28;46.77;101827.94;6227714;22;50485;-65
2021/05/27 05:58:16;;;;;;;;;5.25;5.00;;;;;20.30;46.44;101826.06;6228425;22;45286;-65
2021/05/27 06:00:42;;;;;;;;;6.75;6.25;;;;;20.31;46.85;101825.13;6253776;22;45357;-65
2021/05/27 06:03:07;;;;;;;;;5.25;4.75;;;;;20.29;46.63;101833.22;6247594;22;48323;-65
2021/05/27 06:05:33;;;;;;;;;6.75;5.00;;;;;20.30;46.76;101836.72;6220041;22;45279;-67
2021/05/27 06:07:58;;;;;;;;;4.00;3.00;;;;;20.30;46.35;101836.72;6247915;22;45294;-74
2021/05/27 06:10:24;;;;;;;;;5.50;4.75;;;;;20.29;46.53;101835.03;6220667;22;47221;-65
2021/05/27 06:12:55;;;;;;;;;6.75;5.75;;;;;20.26;46.72;101837.88;6244981;22;45350;-65
2021/05/27 06:15:21;;;;;;;;;4.50;4.50;;;;;20.25;46.66;101831.66;6221443;22;45178;-66
2021/05/27 06:17:47;;;;;;;;;6.00;5.00;;;;;20.26;46.95;101835.19;6246091;22;45308;-72
2021/05/27 06:20:13;;;;;;;;;5.25;4.50;;;;;20.25;46.84;101839.66;6221366;22;45315;-65
2021/05/27 06:22:38;;;;;;;;;6.75;4.50;;;;;20.26;46.87;101840.53;6246790;22;45460;-66
2021/05/27 06:25:04;;;;;;;;;4.75;4.75;;;;;20.26;46.44;101836.06;6245859;22;50088;-65
2021/05/27 06:27:29;;;;;;;;;3.00;3.00;;;;;20.24;46.49;101836.16;6246092;22;45319;-66
2021/05/27 06:29:55;;;;;;;;;5.00;5.00;;;;;20.26;46.65;101837.88;6220393;22;45254;-66
2021/05/27 06:32:20;;;;;;;;;4.25;3.50;;;;;20.24;46.33;101833.50;6245605;22;46079;-65
2021/05/27 06:34:48;;;;;;;;;8.50;4.00;;;;;20.26;46.62;101837.88;6246583;22;45253;-65
2021/05/27 06:37:13;;;;;;;;;4.00;4.00;;;;;20.26;46.62;101833.38;6221120;22;45215;-66
2021/05/27 06:39:39;;;;;;;;;3.75;3.75;;;;;20.25;46.43;101839.66;6247420;22;56183;-66
2021/05/27 06:42:04;;;;;;;;;4.00;4.00;;;;;20.25;46.23;101839.66;6245510;22;61000;-65
2021/05/27 06:44:30;;;;;;;;;3.00;3.00;;;;;20.26;46.38;101837.88;6220218;22;45187;-65
2021/05/27 06:46:55;;;;;;;;;2.50;2.50;;;;;20.24;46.16;101843.31;6247176;22;45151;-65
2021/05/27 06:49:21;;;;;;;;;4.25;4.25;;;;;20.24;46.50;101849.50;6245069;22;59854;-66
2021/05/27 06:51:46;;;;;;;;;5.25;4.00;;;;;20.23;46.46;101847.78;6244577;22;45851;-66
2021/05/27 06:54:11;;;;;;;;;3.00;3.00;;;;;20.22;46.46;101840.69;6194003;22;45271;-66
2021/05/27 06:56:37;;;;;;;;;4.50;3.25;;;;;20.21;46.55;101839.00;6220176;22;45251;-66
2021/05/27 06:59:03;;;;;;;;;3.00;3.00;;;;;20.22;46.33;101842.53;6219467;22;46040;-66
2021/05/27 07:01:28;;;;;;;;;5.50;2.50;;;;;20.22;46.34;101845.19;6245166;22;63904;-66
2021/05/27 07:03:54;;;;;;;;;5.00;3.00;;;;;20.22;46.08;101839.88;6247344;22;45245;-66
2021/05/27 07:06:19;;;;;;;;;3.75;3.75;;;;;20.19;45.82;101848.91;6246014;22;45329;-66
2021/05/27 07:08:45;;;;;;;;;4.75;3.25;;;;;20.19;46.11;101853.38;6245908;22;45430;-66
2021/05/27 07:11:10;;;;;;;;;3.00;3.00;;;;;20.16;46.02;101851.75;6219957;22;46836;-65
2021/05/27 07:13:36;;;;;;;;;2.50;2.00;;;;;20.16;46.10;101856.22;6219246;22;59265;-65
2021/05/27 07:16:01;;;;;;;;;2.00;2.00;;;;;20.15;46.26;101855.34;6245900;22;45151;-66
2021/05/27 07:20:00;;;;;;;;;4.25;4.25;;;;;19.42;42.96;101881.44;5114234;27;45289;-80
2021/05/27 07:22:25;;;;;;;;;3.50;3.50;;;;;18.49;42.77;101883.34;5094960;27;50969;-79
2021/05/27 07:24:50;;;;;;;;;6.50;5.50;;;;;17.69;43.90;101886.09;5094310;27;45257;-78
2021/05/27 07:27:16;;;;;;;;;7.00;6.00;;;;;17.06;45.01;101881.63;5093137;27;52451;-79
2021/05/27 07:29:43;;;;;;;;;12.75;8.50;;;;;16.55;46.31;101884.59;5095041;27;45954;-79
2021/05/27 07:32:08;;;;;;;;;4.00;4.00;;;;;16.14;47.52;101883.53;5090523;27;45935;-79
2021/05/27 07:34:34;;;;;;;;;6.00;5.75;;;;;15.76;48.63;101881.34;5094021;27;52153;-79
2021/05/27 07:36:59;;;;;;;;;6.75;6.75;;;;;15.44;48.46;101881.59;5096914;27;45228;-78
2021/05/27 07:39:25;;;;;;;;;6.00;5.00;;;;;15.17;50.46;101889.59;5076915;27;46146;-78
2021/05/27 07:41:50;;;;;;;;;6.50;5.00;;;;;14.94;49.75;101892.09;5095640;27;45264;-79
2021/05/27 07:44:16;;;;;;;;;4.00;3.25;;;;;14.77;50.14;101892.59;5092733;27;45352;-78
2021/05/27 07:46:41;;;;;;;;;5.00;4.00;;;;;14.61;50.29;101895.75;5095249;27;61442;-78
2021/05/27 07:49:07;;;;;;;;;4.75;4.75;;;;;14.51;50.46;101900.47;5092204;27;45791;-78
2021/05/27 07:51:32;;;;;;;;;3.00;3.00;;;;;14.44;50.43;101900.72;5067062;27;45388;-78
2021/05/27 07:53:58;;;;;;;;;5.25;4.50;;;;;14.36;49.74;101893.88;5094015;27;45322;-78
2021/05/27 07:56:25;;;;;;;;;2.25;2.25;;;;;14.33;50.74;101893.09;5092005;27;63054;-78
2021/05/27 07:58:50;;;;;;;;;5.75;4.75;;;;;14.27;51.33;101889.72;5055128;27;47396;-78
2021/05/27 08:01:15;;;;;;;;;6.25;5.25;;;;;14.24;51.02;101888.97;5076227;27;62231;-78
2021/05/27 08:03:41;;;;;;;;;6.00;6.00;;;;;14.23;51.11;101900.44;5094253;27;45286;-78
2021/05/27 08:06:06;;;;;;;;;7.25;5.25;;;;;14.23;51.57;101903.06;5094993;27;45257;-78
2021/05/27 08:08:32;;;;;;;;;8.00;6.00;;;;;14.23;50.82;101903.06;5095567;27;45248;-78
2021/05/27 08:10:57;;;;;;;;;6.25;5.50;;;;;14.23;51.46;101909.22;5074803;27;62503;-78
2021/05/27 08:13:22;;;;;;;;;8.50;8.00;;;;;14.24;51.39;101904.81;5094534;27;45240;-78
2021/05/27 08:15:48;;;;;;;;;8.50;7.25;;;;;14.26;50.51;101910.94;5077519;27;65285;-78
2021/05/27 08:18:13;;;;;;;;;8.50;6.25;;;;;14.26;50.84;101906.50;5093386;27;45931;-78
2021/05/27 08:23:55;;;;;;;;;1.00;1.00;;;;;15.40;54.62;101883.50;5114470;27;45370;-83
2021/05/27 08:26:20;;;;;;;;;2.50;1.75;;;;;15.88;53.43;101880.03;5062299;27;45303;-82
2021/05/27 08:28:47;;;;;;;;;2.00;2.00;;;;;16.29;53.55;101867.94;5102585;27;46169;-73
2021/05/27 08:31:13;;;;;;;;;2.25;2.25;;;;;16.64;52.71;101870.94;5089466;27;45293;-73
2021/05/27 08:33:38;;;;;;;;;3.00;3.00;;;;;16.96;52.20;101877.66;5082115;27;46994;-73
2021/05/27 08:36:04;;;;;;;;;2.00;2.00;;;;;17.24;51.90;101872.97;5084446;27;61343;-74
2021/05/27 08:38:29;;;;;;;;;5.00;2.00;;;;;17.50;51.22;101879.84;5110280;27;45215;-72
2021/05/27 08:40:55;;;;;;;;;2.00;1.75;;;;;17.73;50.90;101877.06;5096577;27;47153;-75
2021/05/27 08:43:21;;;;;;;;;1.75;1.75;;;;;17.94;50.59;101872.56;5088840;27;47167;-76
2021/05/27 08:45:47;;;;;;;;;3.00;3.00;;;;;18.16;49.95;101876.88;5097257;27;45889;-75
2021/05/27 08:48:14;;;;;;;;;2.00;2.00;;;;;18.34;49.69;101871.63;5095933;27;45489;-75
2021/05/27 08:50:44;;;;;;;;;2.00;1.75;;;;;18.50;49.33;101876.19;5113010;27;45237;-76
2021/05/27 08:53:09;;;;;;;;;2.25;2.25;;;;;18.65;48.75;101877.25;5116350;27;46295;-76
2021/05/27 08:55:35;;;;;;;;;1.50;1.50;;;;;18.77;48.63;101875.78;5099063;27;45249;-75
2021/05/27 08:58:00;;;;;;;;;2.25;1.75;;;;;18.88;48.87;101878.78;5093347;27;61187;-72
2021/05/27 09:00:25;;;;;;;;;1.75;1.00;;;;;18.98;48.54;101873.00;5093066;27;45424;-74
2021/05/27 09:03:00;;;;;;;;;2.00;1.00;;;;;19.09;48.21;101877.75;5113460;27;50536;-76
2021/05/27 09:05:26;;;;;;;;;3.00;2.00;;;;;19.18;48.06;101881.78;5111605;27;46018;-76
2021/05/27 09:07:51;;;;;;;;;1.25;1.25;;;;;19.25;47.37;101875.19;5112403;27;44816;-75
2021/05/27 09:10:17;;;;;;;;;2.25;1.00;;;;;19.32;47.38;101873.94;5113898;27;45033;-76
2021/05/27 09:12:42;;;;;;;;;2.00;2.00;;;;;19.39;47.02;101879.81;5100662;27;45770;-74
2021/05/27 09:15:17;;;;;;;;;3.00;1.50;;;;;19.45;47.27;101873.28;5123190;27;44763;-76
2021/05/27 09:17:46;;;;;;;;;2.00;2.00;;;;;19.53;47.00;101871.06;5111878;27;44950;-75
2021/05/27 09:20:12;;;;;;;;;1.25;1.25;;;;;19.59;46.81;101877.00;5108533;27;46431;-74
2021/05/27 09:22:37;;;;;;;;;2.50;1.00;;;;;19.62;46.70;101877.72;5108752;27;45463;-76
2021/05/27 09:25:03;;;;;;;;;1.25;1.25;;;;;19.66;46.73;101886.41;5107726;27;45205;-76
2021/05/27 09:27:45;;;;;;;;;3.00;1.75;;;;;19.71;46.63;101880.81;5091525;27;45462;-75
2021/05/27 09:30:12;;;;;;;;;2.25;2.25;;;;;19.73;46.14;101877.13;5060950;27;46936;-74
2021/05/27 09:32:44;;;;;;;;;4.00;2.50;;;;;19.75;46.41;101883.28;5094860;27;45503;-75
2021/05/27 09:35:10;;;;;;;;;2.00;2.00;;;;;19.79;46.35;101881.28;5063539;28;45530;-75
2021/05/27 09:37:36;;;;;;;;;1.25;0.75;;;;;19.82;45.94;101894.47;5088560;27;45454;-75
2021/05/27 09:40:02;;;;;;;;;1.00;1.00;;;;;19.84;45.98;101886.38;5071152;27;47199;-75
2021/05/27 09:42:28;;;;;;;;;3.75;2.75;;;;;19.86;46.08;101888.00;5093718;27;47360;-76
2021/05/27 09:44:53;;;;;;;;;1.00;1.00;;;;;19.88;45.75;101885.25;5081051;28;45305;-76
2021/05/27 09:47:29;;;;;;;;;3.00;2.00;;;;;19.89;45.63;101890.50;5062669;28;60426;-75
2021/05/27 09:50:03;;;;;;;;;1.00;1.00;;;;;19.93;45.59;101893.84;5079876;27;45582;-76
2021/05/27 09:52:41;;;;;;;;;1.00;1.00;;;;;19.93;45.41;101891.19;5080154;28;47162;-75
2021/05/27 09:55:11;;;;;;;;;3.75;3.00;;;;;19.87;42.53;101889.75;5069659;27;45506;-83
2021/05/27 09:57:36;;;;;;;;;5.00;5.00;;;;;19.56;42.37;101894.91;5060588;28;45624;-83
2021/05/27 10:00:04;;;;;;;;;5.75;5.00;;;;;19.28;41.56;101892.84;5082703;27;45574;-83
2021/05/27 10:02:29;;;;;;;;;6.00;6.00;;;;;19.08;42.40;101895.56;5078842;28;46293;-82
2021/05/27 10:04:55;;;;;;;;;6.75;4.50;;;;;18.95;41.97;101891.78;5079236;28;45640;-82
2021/05/27 10:07:38;;;;;;;;;4.75;4.75;;;;;18.74;41.18;101887.44;5081984;28;45268;-83
2021/05/27 10:10:05;;;;;;;;;4.00;4.00;;;;;18.59;41.93;101891.75;5080839;27;45288;-83
2021/05/27 10:12:31;;;;;;;;;5.25;4.50;;;;;18.49;41.68;101891.34;5062574;28;47892;-82
2021/05/27 10:14:57;;;;;;;;;3.75;3.00;;;;;18.30;40.75;101891.34;5085663;27;45500;-82
2021/05/27 10:17:22;;;;;;;;;4.25;4.25;;;;;18.15;41.48;101893.75;5085551;27;45669;-82
2021/05/27 10:19:49;;;;;;;;;6.50;5.75;;;;;18.03;40.10;101895.19;5081019;27;45657;-82
2021/05/27 10:22:14;;;;;;;;;5.25;5.00;;;;;17.98;39.28;101884.78;5079091;28;45454;-82
2021/05/27 10:24:39;;;;;;;;;3.25;3.25;;;;;17.94;37.80;101893.84;5079537;27;54178;-82
2021/05/27 10:27:05;;;;;;;;;4.25;4.25;;;;;17.95;40.20;101894.72;5061508;28;45548;-82
2021/05/27 10:29:32;;;;;;;;;4.00;4.00;;;;;18.03;39.10;101894.31;5079571;28;45744;-83
2021/05/27 10:31:58;;;;;;;;;7.25;6.00;;;;;18.07;40.30;101894.13;5057964;28;47264;-82
2021/05/27 10:34:46;;;;;;;;;6.00;5.50;;;;;18.02;38.26;101893.50;5092410;27;45758;-82
2021/05/27 10:37:13;;;;;;;;;6.00;6.00;;;;;17.97;39.89;101890.19;5080682;27;45717;-82
2021/05/27 10:39:39;;;;;;;;;9.00;7.00;;;;;17.96;39.39;101883.13;5080099;27;45342;-82
2021/05/27 10:42:05;;;;;;;;;5.25;5.25;;;;;17.91;38.77;101888.66;5080343;28;45905;-83
2021/05/27 10:44:30;;;;;;;;;8.00;6.00;;;;;17.89;40.16;101893.19;5078382;27;45759;-82
2021/05/27 10:46:55;;;;;;;;;6.25;5.00;;;;;17.91;39.05;101903.75;5079183;27;47732;-82
2021/05/27 10:49:40;;;;;;;;;4.00;4.00;;;;;17.91;39.44;101901.06;5081011;28;45261;-82
2021/05/27 10:52:27;;;;;;;;;6.00;6.00;;;;;17.95;38.27;101897.38;5081096;27;45364;-82
2021/05/27 10:54:53;;;;;;;;;4.75;4.25;;;;;18.08;39.49;101892.31;5102466;27;45659;-82
2021/05/27 10:57:40;;;;;;;;;1.00;1.00;;;;;18.26;43.98;101900.41;5088689;27;45170;-77
2021/05/27 11:00:17;;;;;;;;;2.00;2.00;;;;;18.48;44.56;101899.38;5081445;28;45209;-77
2021/05/27 11:02:43;;;;;;;;;2.00;1.25;;;;;18.65;45.16;101898.56;5080439;27;45359;-75
2021/05/27 11:05:15;;;;;;;;;1.00;1.00;;;;;18.82;45.28;101896.84;5080670;27;51893;-76
2021/05/27 11:07:41;;;;;;;;;1.00;1.00;;;;;18.94;45.14;101895.41;5080237;27;45300;-77
2021/05/27 11:10:29;;;;;;;;;1.00;1.00;;;;;19.08;44.95;101894.69;5081071;28;45289;-73
2021/05/27 11:13:05;;;;;;;;;1.00;1.00;;;;;19.21;44.93;101892.31;5080240;28;45389;-73
2021/05/27 11:15:31;;;;;;;;;2.25;1.25;;;;;19.31;44.98;101887.34;5079621;28;45523;-76
2021/05/27 11:18:01;;;;;;;;;1.25;1.25;;;;;19.41;44.90;101893.06;5042109;28;61048;-76
2021/05/27 11:20:28;;;;;;;;;1.00;1.00;;;;;19.48;44.81;101893.59;5076557;28;45581;-76
2021/05/27 11:22:56;;;;;;;;;2.00;2.00;;;;;19.54;45.08;101894.13;5082089;27;46037;-78
2021/05/27 11:25:26;;;;;;;;;1.00;1.00;;;;;19.62;45.33;101890.19;5063734;28;45253;-74
2021/05/27 11:28:02;;;;;;;;;1.00;1.00;;;;;19.64;45.18;101893.63;5079930;28;45249;-74
2021/05/27 11:30:53;;;;;;;;;3.00;1.25;;;;;19.66;44.95;101897.06;5079793;28;45296;-72
2021/05/27 11:33:15;;;;;;;;;1.75;1.75;;;;;19.68;45.08;101896.06;5080066;27;46002;-72
2021/05/27 11:35:42;;;;;;;;;2.25;1.50;;;;;19.71;44.78;101884.38;5080893;28;45301;-73
2021/05/27 11:38:11;;;;;;;;;1.00;1.00;;;;;19.75;45.50;101885.06;5078907;28;45491;-73
2021/05/27 11:40:38;;;;;;;;;0.00;0.00;;;;;19.79;45.19;101887.47;5067296;28;45491;-73
2021/05/27 11:43:04;;;;;;;;;1.00;1.00;;;;;19.83;44.89;101890.00;5077215;28;46334;-74
2021/05/27 12:44:52;;;;;;;;;2.75;2.75;;;;;23.89;35.54;101875.66;5127827;27;45482;-72
2021/05/27 12:47:19;;;;;;;;;2.00;2.00;;;;;23.41;36.15;101876.34;5094972;27;48250;-72
2021/05/27 12:49:46;;;;;;;;;1.75;1.75;;;;;22.98;37.07;101886.41;5111609;27;45308;-72
2021/05/27 12:52:11;;;;;;;;;3.00;2.00;;;;;22.62;38.04;101884.25;5116344;27;45277;-72
2021/05/27 12:54:36;;;;;;;;;2.75;1.25;;;;;22.32;38.41;101886.16;5110647;27;45291;-71
2021/05/27 12:57:09;;;;;;;;;4.00;1.25;;;;;22.05;39.26;101886.97;5113344;27;45233;-69
2021/05/27 12:59:35;;;;;;;;;1.00;1.00;;;;;21.83;39.79;101891.00;5079972;27;45313;-78
2021/05/27 13:02:02;;;;;;;;;2.25;2.00;;;;;21.67;39.83;101891.13;5109059;27;47376;-73
2021/05/27 13:04:32;;;;;;;;;2.00;2.00;;;;;21.50;40.29;101884.13;5083804;27;46144;-77
2021/05/27 13:07:08;;;;;;;;;1.00;1.00;;;;;21.33;40.47;101886.91;5103132;27;45328;-76
2021/05/27 13:09:46;;;;;;;;;1.00;1.00;;;;;21.20;40.51;101883.25;5089934;27;45429;-77
2021/05/27 13:12:11;;;;;;;;;1.50;1.50;;;;;21.09;40.74;101887.41;5107040;27;45468;-76
2021/05/27 13:14:37;;;;;;;;;1.00;1.00;;;;;21.02;40.80;101894.09;5105548;27;45601;-77
2021/05/27 13:17:15;;;;;;;;;1.00;1.00;;;;;20.95;41.26;101900.72;5109382;27;45227;-77
2021/05/27 17:15:36;;;;;;;;;7.50;7.25;;;;;16.49;49.00;101845.06;5071522;28;45502;-69
2021/05/27 17:18:04;;;;;;;;;8.75;7.00;;;;;16.82;48.71;101841.91;5055780;28;45329;-69
2021/05/27 17:20:30;;;;;;;;;5.75;5.50;;;;;17.14;47.81;101840.59;5037943;28;45232;-70
2021/05/27 17:22:55;;;;;;;;;6.00;5.25;;;;;17.45;47.02;101836.66;5036218;28;46932;-73
2021/05/27 17:25:20;;;;;;;;;6.00;6.00;;;;;17.70;46.59;101838.19;5037512;28;52345;-71
2021/05/27 17:27:46;;;;;;;;;6.00;6.00;;;;;17.94;46.27;101837.13;5053326;28;57513;-75
2021/05/27 17:30:12;;;;;;;;;7.50;6.00;;;;;18.15;45.96;101837.03;5053408;28;45302;-71
2021/05/27 17:32:37;;;;;;;;;10.00;7.00;;;;;18.36;45.37;101837.81;5037599;28;45620;-71
2021/05/27 17:35:08;;;;;;;;;7.25;7.00;;;;;18.54;44.77;101840.53;5053647;28;45503;-70
2021/05/27 17:37:35;;;;;;;;;8.00;6.00;;;;;18.71;44.49;101831.69;5052492;28;45538;-70
2021/05/27 17:40:01;;;;;;;;;8.00;6.00;;;;;18.86;44.01;101840.72;5056224;28;45357;-70
2021/05/27 17:42:26;;;;;;;;;8.75;6.75;;;;;19.00;43.90;101831.13;5053623;28;45446;-70
2021/05/27 17:44:51;;;;;;;;;6.00;6.00;;;;;19.12;43.65;101840.28;5036022;28;56322;-70
2021/05/27 17:47:17;;;;;;;;;6.00;4.00;;;;;19.25;43.34;101843.22;5036310;28;63049;-70
2021/05/27 17:49:42;;;;;;;;;7.00;7.00;;;;;19.33;43.14;101837.50;5052191;28;50678;-71
2021/05/27 17:52:09;;;;;;;;;10.50;7.25;;;;;19.43;42.79;101843.19;5053957;28;61896;-70
2021/05/27 17:54:34;;;;;;;;;11.25;9.25;;;;;19.51;42.79;101846.28;5054271;28;46199;-70
2021/05/27 17:57:00;;;;;;;;;9.00;7.75;;;;;19.60;42.59;101850.28;5053853;28;45438;-70
2021/05/27 17:59:25;;;;;;;;;8.75;8.00;;;;;19.66;42.31;101854.41;5050740;28;56300;-70
2021/05/27 18:01:51;;;;;;;;;8.50;8.00;;;;;19.73;42.17;101854.97;5036680;28;55368;-70
2021/05/27 18:04:16;;;;;;;;;6.50;6.00;;;;;19.78;41.57;101851.06;5035066;28;52670;-70
2021/05/27 18:06:42;;;;;;;;;7.25;7.25;;;;;19.83;41.54;101852.66;5054845;28;45358;-70
2021/05/27 18:09:08;;;;;;;;;8.25;8.00;;;;;19.88;41.28;101858.56;5037070;28;45713;-70
2021/05/27 18:11:34;;;;;;;;;5.50;4.75;;;;;19.90;41.32;101857.53;5054566;28;45286;-70
2021/05/27 18:13:59;;;;;;;;;7.75;7.75;;;;;19.95;41.49;101853.78;5052612;28;45407;-70
2021/05/27 18:16:24;;;;;;;;;8.25;8.25;;;;;19.98;41.27;101849.13;5053205;28;45447;-70
2021/05/27 18:18:50;;;;;;;;;6.25;6.25;;;;;20.01;41.00;101854.28;5052964;28;45398;-70
2021/05/27 18:21:15;;;;;;;;;7.00;6.00;;;;;20.04;40.72;101852.38;5053129;28;45329;-70
2021/05/27 18:23:41;;;;;;;;;12.75;8.50;;;;;20.05;40.78;101852.28;5052998;28;46092;-70
2021/05/27 18:26:06;;;;;;;;;8.00;8.00;;;;;20.07;40.95;101850.44;5045889;28;45325;-70
2021/05/27 18:28:32;;;;;;;;;11.75;9.00;;;;;20.10;40.62;101852.91;5041240;28;45484;-71
2021/05/27 18:30:58;;;;;;;;;10.00;10.00;;;;;20.11;40.86;101856.47;5021799;28;45603;-70
2021/05/27 18:33:24;;;;;;;;;11.50;9.50;;;;;20.16;41.16;101857.06;5040614;28;47002;-70
2021/05/27 18:35:49;;;;;;;;;10.25;10.25;;;;;20.18;41.17;101849.84;5022967;28;46136;-72
2021/05/27 18:38:18;;;;;;;;;8.50;8.50;;;;;20.18;41.10;101854.31;5023830;28;45362;-72
2021/05/27 18:40:43;;;;;;;;;11.50;10.00;;;;;20.17;40.89;101858.81;5038868;28;45369;-72
2021/05/27 18:43:10;;;;;;;;;12.25;10.00;;;;;20.16;41.33;101861.53;5039934;28;46023;-72
2021/05/27 18:45:37;;;;;;;;;8.00;8.00;;;;;20.13;41.33;101867.91;5040323;28;45538;-74
2021/05/27 18:48:09;;;;;;;;;8.00;8.00;;;;;20.10;41.74;101868.91;5040038;28;45526;-73
2021/05/27 18:50:35;;;;;;;;;5.25;5.25;;;;;20.08;41.98;101864.59;5024150;28;46111;-73
2021/05/27 18:53:01;;;;;;;;;8.00;6.00;;;;;20.06;42.19;101866.50;5038388;28;46673;-72
2021/05/27 18:55:26;;;;;;;;;7.75;6.50;;;;;20.04;41.78;101863.94;5043657;28;45300;-72
2021/05/27 18:57:52;;;;;;;;;6.00;6.00;;;;;20.02;42.00;101860.50;5022911;28;46407;-72
2021/05/27 19:00:18;;;;;;;;;10.75;7.00;;;;;20.00;42.27;101863.22;5039519;28;45547;-72
2021/05/27 19:02:44;;;;;;;;;8.25;8.25;;;;;19.99;42.32;101868.66;5039977;28;46282;-72
2021/05/27 19:05:10;;;;;;;;;7.00;7.00;;;;;19.98;42.09;101865.13;5039459;28;55060;-72
2021/05/27 19:07:35;;;;;;;;;6.50;6.50;;;;;19.96;42.30;101866.16;5023390;28;45421;-72
2021/05/27 19:10:00;;;;;;;;;10.00;8.00;;;;;19.95;42.68;101869.78;5040375;28;45484;-72
2021/05/27 19:12:26;;;;;;;;;5.50;5.50;;;;;19.95;42.18;101875.13;5038478;28;61467;-72
2021/05/27 19:14:51;;;;;;;;;5.25;5.25;;;;;19.93;42.51;101874.34;5022355;28;53637;-72
2021/05/27 19:17:17;;;;;;;;;9.00;5.75;;;;;19.93;42.39;101877.00;5040063;28;45322;-72
2021/05/27 19:19:42;;;;;;;;;6.50;5.50;;;;;19.92;42.60;101872.63;5040308;28;60289;-72
2021/05/27 19:22:08;;;;;;;;;7.00;7.00;;;;;19.91;42.29;101877.09;5041067;28;45204;-72
2021/05/27 19:24:34;;;;;;;;;5.75;5.75;;;;;19.90;42.67;101872.72;5040712;28;45336;-72
2021/05/27 19:27:00;;;;;;;;;7.00;7.00;;;;;19.89;42.61;101877.19;5040460;28;45288;-74
2021/05/27 19:29:26;;;;;;;;;6.00;5.00;;;;;19.88;42.85;101874.56;5038918;28;45246;-73
2021/05/27 19:31:51;;;;;;;;;6.75;6.00;;;;;19.89;43.17;101881.66;5038951;28;45183;-73
2021/05/27 19:34:16;;;;;;;;;8.75;7.00;;;;;19.89;44.49;101884.31;5038317;28;64193;-73
2021/05/27 19:36:42;;;;;;;;;6.75;6.75;;;;;19.90;44.72;101884.22;5022273;28;53120;-73
2021/05/27 19:39:07;;;;;;;;;4.75;4.00;;;;;19.94;45.25;101879.59;5038724;28;47076;-74
2021/05/27 19:41:33;;;;;;;;;6.00;5.50;;;;;19.96;45.38;101883.03;5035867;28;59985;-73
2021/05/27 19:43:58;;;;;;;;;5.00;5.00;;;;;19.98;45.60;101881.13;5021181;28;45424;-73
2021/05/27 19:46:24;;;;;;;;;5.75;5.75;;;;;20.01;45.47;101896.13;5022537;28;50752;-75
2021/05/27 19:48:53;;;;;;;;;8.25;5.25;;;;;20.04;45.79;101890.63;5019725;28;45304;-72
2021/05/27 19:51:21;;;;;;;;;6.00;4.50;;;;;20.09;45.46;101893.03;5039136;28;45920;-75
2021/05/27 19:53:50;;;;;;;;;7.00;5.75;;;;;19.83;42.74;101900.66;5038552;28;45413;-92
2021/05/27 19:56:18;;;;;;;;;6.00;5.50;;;;;19.20;43.49;101901.22;5023635;28;45427;-92
2021/05/27 19:58:44;;;;;;;;;5.00;5.00;;;;;18.59;44.05;101906.84;5005826;28;46052;-91
2021/05/27 20:01:09;;;;;;;;;9.00;6.25;;;;;18.05;44.35;101911.09;5023418;28;47661;-92
2021/05/27 20:03:35;;;;;;;;;5.00;5.00;;;;;17.56;45.01;101910.56;5002481;28;45370;-91
2021/05/27 20:06:00;;;;;;;;;4.75;4.50;;;;;17.14;46.32;101912.31;4999128;28;45268;-93
